createdAt,value
2018-11-23T00:04:48.768Z," 2.35"
2018-11-23T00:09:44.253Z," 2.29"
2018-11-23T00:14:39.736Z," 2.28"
2018-11-23T00:19:36.336Z," 2.29"
2018-11-23T00:24:31.461Z," 2.26"
2018-11-23T00:29:26.897Z," 2.20"
2018-11-23T00:34:23.587Z," 2.31"
2018-11-23T00:39:18.918Z," 2.29"
2018-11-23T00:44:14.593Z," 2.22"
2018-11-23T00:49:10.149Z," 2.35"
2018-11-23T00:54:07.119Z," 2.31"
2018-11-23T00:59:03.955Z," 2.31"
2018-11-23T01:03:59.431Z," 2.42"
2018-11-23T01:08:56.168Z," 2.43"
2018-11-23T01:13:52.841Z," 2.51"
2018-11-23T01:18:48.211Z," 2.51"
2018-11-23T01:23:43.949Z," 2.51"
2018-11-23T01:28:39.601Z," 2.56"
2018-11-23T01:33:35.948Z," 2.47"
2018-11-23T01:38:31.650Z," 2.53"
2018-11-23T01:43:27.223Z," 2.61"
2018-11-23T01:48:23.931Z," 2.56"
2018-11-23T01:53:19.336Z," 2.47"
2018-11-23T01:58:15.712Z," 2.49"
2018-11-23T02:03:11.758Z," 2.50"
2018-11-23T02:08:07.254Z," 2.50"
2018-11-23T02:13:04.052Z," 2.53"
2018-11-23T02:17:59.191Z," 2.44"
2018-11-23T02:22:56.372Z," 2.47"
2018-11-23T02:27:51.321Z," 2.44"
2018-11-23T02:32:47.754Z," 2.46"
2018-11-23T02:37:44.044Z," 2.28"
2018-11-23T02:42:39.437Z," 2.11"
2018-11-23T02:47:35.304Z," 2.17"
2018-11-23T02:52:31.302Z," 2.14"
2018-11-23T02:57:26.764Z," 2.10"
2018-11-23T03:02:22.044Z," 2.08"
2018-11-23T03:07:17.521Z," 2.04"
2018-11-23T03:12:14.006Z," 2.04"
2018-11-23T03:17:09.757Z," 1.94"
2018-11-23T03:22:05.399Z," 1.80"
2018-11-23T03:27:00.670Z," 1.76"
2018-11-23T03:31:56.296Z," 1.78"
2018-11-23T03:36:51.717Z," 1.77"
2018-11-23T03:41:47.252Z," 1.81"
2018-11-23T03:46:43.887Z," 1.73"
2018-11-23T03:51:40.409Z," 1.74"
2018-11-23T03:56:36.379Z," 1.70"
2018-11-23T04:01:31.586Z," 1.59"
2018-11-23T04:06:26.972Z," 1.52"
2018-11-23T04:11:23.797Z," 1.53"
2018-11-23T04:16:19.248Z," 1.59"
2018-11-23T04:21:15.750Z," 1.50"
2018-11-23T04:26:10.861Z," 1.49"
2018-11-23T04:31:08.198Z," 1.40"
2018-11-23T04:36:03.371Z," 1.42"
2018-11-23T04:40:59.069Z," 1.30"
2018-11-23T04:45:54.927Z," 1.30"
2018-11-23T04:50:50.682Z," 1.20"
2018-11-23T04:55:46.012Z," 1.35"
2018-11-23T05:00:41.597Z," 1.38"
2018-11-23T05:05:37.204Z," 1.40"
2018-11-23T05:10:33.966Z," 1.49"
2018-11-23T05:15:29.639Z," 1.42"
2018-11-23T05:20:26.225Z," 1.30"
2018-11-23T05:25:26.402Z," 1.20"
2018-11-23T05:30:20.843Z," 1.24"
2018-11-23T05:35:16.479Z," 1.19"
2018-11-23T05:40:12.025Z," 1.22"
2018-11-23T05:45:07.663Z," 1.10"
2018-11-23T05:50:03.288Z," 1.10"
2018-11-23T05:54:58.879Z," 1.13"
2018-11-23T05:59:54.284Z," 1.05"
2018-11-23T06:04:49.893Z," 1.06"
2018-11-23T06:09:46.502Z," 1.06"
2018-11-23T06:14:41.647Z," 1.05"
2018-11-23T06:19:38.287Z," 0.95"
2018-11-23T06:24:34.084Z," 0.91"
2018-11-23T06:29:29.866Z," 0.87"
2018-11-23T06:34:26.188Z," 0.92"
2018-11-23T06:39:21.507Z," 0.86"
2018-11-23T06:44:18.144Z," 0.91"
2018-11-23T06:49:13.471Z," 0.81"
2018-11-23T06:54:14.350Z," 0.83"
2018-11-23T06:59:08.006Z," 0.84"
2018-11-23T07:04:04.209Z," 0.80"
2018-11-23T07:09:01.023Z," 0.83"
2018-11-23T07:14:03.753Z," 0.81"
2018-11-23T07:18:56.146Z," 0.78"
2018-11-23T07:23:51.980Z," 0.91"
2018-11-23T07:28:47.488Z," 0.88"
2018-11-23T07:33:43.024Z," 0.86"
2018-11-23T07:38:39.580Z," 0.83"
2018-11-23T07:43:35.579Z," 0.91"
2018-11-23T07:48:31.301Z," 0.83"
2018-11-23T07:53:26.720Z," 1.01"
2018-11-23T07:58:22.496Z," 0.99"
2018-11-23T08:03:18.586Z," 1.02"
2018-11-23T08:08:14.220Z," 1.13"
2018-11-23T08:13:14.830Z," 1.10"
2018-11-23T08:18:09.397Z," 1.14"
2018-11-23T08:23:05.254Z," 1.23"
2018-11-23T08:28:00.934Z," 1.28"
2018-11-23T08:32:57.353Z," 1.38"
2018-11-23T08:37:55.042Z," 1.44"
2018-11-23T08:42:50.190Z," 1.48"
2018-11-23T08:47:45.818Z," 1.50"
2018-11-23T08:52:41.378Z," 1.70"
2018-11-23T08:57:37.088Z," 1.88"
2018-11-23T09:02:32.884Z," 2.00"
2018-11-23T09:07:28.591Z," 2.04"
2018-11-23T09:12:24.454Z," 2.20"
2018-11-23T09:17:20.064Z," 2.32"
2018-11-23T09:22:23.165Z," 2.39"
2018-11-23T09:27:16.335Z," 2.56"
2018-11-23T09:32:12.052Z," 2.79"
2018-11-23T09:37:08.433Z," 2.86"
2018-11-23T09:42:05.147Z," 2.85"
2018-11-23T09:47:00.903Z," 2.92"
2018-11-23T09:51:57.064Z," 3.13"
2018-11-23T09:56:52.799Z," 3.25"
2018-11-23T10:01:48.518Z," 3.44"
2018-11-23T10:06:44.428Z," 3.51"
2018-11-23T10:11:40.075Z," 3.80"
2018-11-23T10:16:37.156Z," 3.96"
2018-11-23T10:21:32.944Z," 3.98"
2018-11-23T10:26:29.672Z," 4.02"
2018-11-23T10:31:25.109Z," 4.19"
2018-11-23T10:36:20.982Z," 4.40"
2018-11-23T10:41:17.434Z," 4.60"
2018-11-23T10:46:13.405Z," 4.80"
2018-11-23T10:51:09.299Z," 5.10"
2018-11-23T10:56:05.576Z," 5.25"
2018-11-23T11:01:02.255Z," 5.44"
2018-11-23T11:05:59.423Z," 5.50"
2018-11-23T11:10:55.057Z," 5.71"
2018-11-23T11:15:50.982Z," 5.86"
2018-11-23T11:20:47.005Z," 6.09"
2018-11-23T11:25:44.121Z," 5.87"
2018-11-23T11:30:40.746Z," 5.91"
2018-11-23T11:35:36.161Z," 6.19"
2018-11-23T11:40:32.335Z," 6.28"
2018-11-23T11:45:28.056Z," 6.45"
2018-11-23T11:50:23.311Z," 6.59"
2018-11-23T11:55:19.121Z," 6.77"
2018-11-23T12:00:14.796Z," 6.70"
2018-11-23T12:05:11.585Z," 6.79"
2018-11-23T12:10:07.025Z," 6.56"
2018-11-23T12:15:02.903Z," 6.52"
2018-11-23T12:19:58.302Z," 6.59"
2018-11-23T12:24:53.997Z," 6.54"
2018-11-23T12:29:49.407Z," 6.52"
2018-11-23T12:34:45.364Z," 6.56"
2018-11-23T12:39:41.037Z," 6.56"
2018-11-23T12:44:37.959Z," 6.60"
2018-11-23T12:49:34.392Z," 6.66"
2018-11-23T12:54:29.873Z," 6.67"
2018-11-23T12:59:26.621Z," 6.64"
2018-11-23T13:04:22.114Z," 6.67"
2018-11-23T13:09:18.063Z," 6.77"
2018-11-23T13:14:13.618Z," 6.89"
2018-11-23T13:19:09.396Z," 6.95"
2018-11-23T13:24:05.891Z," 6.89"
2018-11-23T13:29:10.888Z," 7.00"
2018-11-23T13:34:00.753Z," 6.92"
2018-11-23T13:38:56.343Z," 6.92"
2018-11-23T13:43:52.351Z," 6.97"
2018-11-23T13:48:48.782Z," 7.02"
2018-11-23T13:53:44.323Z," 6.96"
2018-11-23T13:58:39.930Z," 6.97"
2018-11-23T14:03:35.563Z," 7.06"
2018-11-23T14:08:31.375Z," 7.06"
2018-11-23T14:13:27.164Z," 6.99"
2018-11-23T14:18:24.422Z," 6.95"
2018-11-23T14:23:21.157Z," 6.89"
2018-11-23T14:28:17.556Z," 6.85"
2018-11-23T14:33:14.144Z," 6.84"
2018-11-23T14:38:09.394Z," 6.88"
2018-11-23T14:43:05.051Z," 6.72"
2018-11-23T14:48:00.685Z," 6.60"
2018-11-23T14:52:56.300Z," 6.70"
2018-11-23T14:57:52.193Z," 6.60"
2018-11-23T15:02:47.644Z," 6.48"
2018-11-23T15:07:42.898Z," 6.54"
2018-11-23T15:12:38.790Z," 6.46"
2018-11-23T15:17:34.371Z," 6.46"
2018-11-23T15:22:30.230Z," 6.31"
2018-11-23T15:27:25.971Z," 6.26"
2018-11-23T15:32:21.527Z," 6.22"
2018-11-23T15:37:17.174Z," 6.26"
2018-11-23T15:42:12.845Z," 6.27"
2018-11-23T15:47:08.730Z," 6.08"
2018-11-23T15:52:05.584Z," 5.94"
2018-11-23T15:57:00.839Z," 5.75"
2018-11-23T16:01:57.475Z," 5.72"
2018-11-23T16:06:52.884Z," 5.54"
2018-11-23T16:11:48.519Z," 5.50"
2018-11-23T16:16:44.154Z," 5.56"
2018-11-23T16:21:39.988Z," 5.36"
2018-11-23T16:26:35.545Z," 5.21"
2018-11-23T16:31:31.064Z," 5.23"
2018-11-23T16:36:26.370Z," 5.14"
2018-11-23T16:41:22.052Z," 4.97"
2018-11-23T16:46:18.394Z," 4.80"
2018-11-23T16:51:15.077Z," 4.70"
2018-11-23T16:56:10.138Z," 4.63"
2018-11-23T17:01:05.806Z," 4.50"
2018-11-23T17:06:02.469Z," 4.49"
2018-11-23T17:10:58.596Z," 4.45"
2018-11-23T17:15:54.088Z," 4.28"
2018-11-23T17:20:49.569Z," 4.17"
2018-11-23T17:25:45.254Z," 3.98"
2018-11-23T17:30:40.543Z," 3.96"
2018-11-23T17:35:36.015Z," 3.86"
2018-11-23T17:40:31.613Z," 3.83"
2018-11-23T17:45:27.228Z," 3.81"
2018-11-23T17:50:23.887Z," 3.66"
2018-11-23T17:55:20.236Z," 3.59"
2018-11-23T18:00:16.796Z," 3.42"
2018-11-23T18:05:13.161Z," 3.47"
2018-11-23T18:10:10.129Z," 3.37"
2018-11-23T18:15:05.423Z," 3.23"
2018-11-23T18:20:01.129Z," 3.23"
2018-11-23T18:24:56.634Z," 3.25"
2018-11-23T18:29:52.283Z," 3.22"
2018-11-23T18:34:47.804Z," 3.13"
2018-11-23T18:39:44.391Z," 3.04"
2018-11-23T18:44:40.599Z," 2.97"
2018-11-23T18:49:35.656Z," 2.93"
2018-11-23T18:54:31.882Z," 2.92"
2018-11-23T18:59:28.311Z," 3.03"
2018-11-23T19:04:24.192Z," 2.97"
2018-11-23T19:09:19.968Z," 2.87"
2018-11-23T19:14:16.229Z," 2.83"
2018-11-23T19:19:12.004Z," 2.86"
2018-11-23T19:24:07.430Z," 2.79"
2018-11-23T19:29:04.087Z," 2.80"
2018-11-23T19:33:59.792Z," 2.86"
2018-11-23T19:38:56.078Z," 2.85"
2018-11-23T19:43:52.622Z," 2.83"
2018-11-23T19:48:49.324Z," 2.68"
2018-11-23T19:53:44.181Z," 2.61"
2018-11-23T19:58:41.391Z," 2.65"
2018-11-23T20:03:37.944Z," 2.62"
2018-11-23T20:08:33.239Z," 2.47"
2018-11-23T20:13:28.915Z," 2.38"
2018-11-23T20:18:24.483Z," 2.36"
2018-11-23T20:23:20.045Z," 2.38"
2018-11-23T20:28:15.714Z," 2.39"
2018-11-23T20:33:12.269Z," 2.29"
2018-11-23T20:38:07.495Z," 2.35"
2018-11-23T20:43:03.083Z," 2.33"
2018-11-23T20:47:58.627Z," 2.42"
2018-11-23T20:52:54.253Z," 2.26"
2018-11-23T20:57:49.729Z," 2.20"
2018-11-23T21:02:45.349Z," 2.20"
2018-11-23T21:07:41.293Z," 2.17"
2018-11-23T21:12:37.194Z," 2.31"
2018-11-23T21:17:32.422Z," 2.28"
2018-11-23T21:22:29.138Z," 2.28"
2018-11-23T21:27:24.578Z," 2.20"
2018-11-23T21:32:19.978Z," 2.07"
2018-11-23T21:37:15.469Z," 2.13"
2018-11-23T21:42:11.143Z," 2.07"
2018-11-23T21:47:06.801Z," 2.07"
2018-11-23T21:52:03.093Z," 2.04"
2018-11-23T21:56:58.747Z," 2.04"
2018-11-23T22:01:55.383Z," 2.04"
2018-11-23T22:06:50.475Z," 2.02"
2018-11-23T22:11:52.366Z," 2.07"
2018-11-23T22:16:45.218Z," 1.97"
2018-11-23T22:21:41.487Z," 1.94"
2018-11-23T22:26:37.239Z," 1.94"
2018-11-23T22:31:33.878Z," 1.94"
2018-11-23T22:36:29.090Z," 1.84"
2018-11-23T22:41:24.571Z," 1.77"
2018-11-23T22:46:19.945Z," 1.71"
2018-11-23T22:51:16.289Z," 1.78"
2018-11-23T22:56:11.898Z," 1.74"
2018-11-23T23:01:07.473Z," 1.56"
2018-11-23T23:06:03.475Z," 1.48"
2018-11-23T23:10:59.137Z," 1.48"
2018-11-23T23:15:55.795Z," 1.66"
2018-11-23T23:20:51.283Z," 1.45"
2018-11-23T23:25:46.946Z," 1.42"
2018-11-23T23:30:43.447Z," 1.42"
2018-11-23T23:35:38.813Z," 1.48"
2018-11-23T23:40:35.436Z," 1.35"
2018-11-23T23:45:30.686Z," 1.28"
2018-11-23T23:50:26.334Z," 1.28"
2018-11-23T23:55:22.982Z," 1.28"
